Time;durP1;ratioP1;P1;durP2;ratioP2;P2;SDS_P1;SDS_P2;PMS_P1;PMS_P2;Temp;Humidity;BMP_temperature;BMP_pressure;BME280_temperature;BME280_humidity;BME280_pressure;Samples;Min_cycle;Max_cycle;Signal;HPM_P1;HPM_P2
2022/05/12 00:00:30;;;;;;;9.73;3.85;;;;;;;13.73;57.22;94407.38;5063923;28;20092;-77
2022/05/12 00:02:55;;;;;;;6.25;3.35;;;;;;;13.67;57.29;94397.94;5063899;28;20028;-78
2022/05/12 00:05:21;;;;;;;6.45;3.30;;;;;;;13.60;57.28;94400.34;5063709;28;20253;-77
2022/05/12 00:07:47;;;;;;;6.43;3.65;;;;;;;13.54;57.58;94398.91;5063805;28;20044;-78
2022/05/12 00:10:15;;;;;;;6.00;3.35;;;;;;;13.52;57.50;94396.56;5063641;28;20067;-77
2022/05/12 00:12:41;;;;;;;7.93;2.80;;;;;;;13.46;57.68;94387.13;5063623;28;20051;-78
2022/05/12 00:15:11;;;;;;;8.30;3.55;;;;;;;13.43;57.72;94385.06;5063655;28;20017;-78
2022/05/12 00:17:37;;;;;;;8.88;3.70;;;;;;;13.38;57.79;94386.03;5063483;28;20071;-78
2022/05/12 00:20:04;;;;;;;8.00;3.08;;;;;;;13.38;57.87;94391.38;5063414;28;20267;-78
2022/05/12 00:22:29;;;;;;;7.05;2.90;;;;;;;13.32;57.94;94391.88;5063513;28;20048;-77
2022/05/12 00:24:54;;;;;;;11.02;2.75;;;;;;;13.32;58.06;94381.16;5045400;28;20020;-78
2022/05/12 00:27:20;;;;;;;6.70;3.38;;;;;;;13.31;58.29;94391.09;5045821;28;20079;-78
2022/05/12 00:29:45;;;;;;;10.32;2.90;;;;;;;13.28;58.32;94391.69;5063408;28;20024;-78
2022/05/12 00:32:11;;;;;;;4.90;2.83;;;;;;;13.22;58.64;94391.03;5063188;28;20028;-78
2022/05/12 00:34:36;;;;;;;6.25;3.25;;;;;;;13.19;58.37;94393.59;5063024;28;20025;-78
2022/05/12 00:37:02;;;;;;;7.13;3.28;;;;;;;13.19;58.28;94390.91;5063268;28;20017;-77
2022/05/12 00:39:27;;;;;;;9.73;3.25;;;;;;;13.20;57.81;94395.16;5063130;28;20211;-77
2022/05/12 00:41:52;;;;;;;5.60;3.10;;;;;;;13.22;57.21;94383.00;5062426;28;20035;-78
2022/05/12 00:44:18;;;;;;;8.68;2.95;;;;;;;13.26;56.86;94377.81;5062936;28;20029;-78
2022/05/12 00:46:49;;;;;;;10.48;3.45;;;;;;;13.28;56.91;94380.97;5062922;28;20031;-79
2022/05/12 00:49:33;;;;;;;8.90;4.13;;;;;;;13.28;57.18;94385.53;5062956;28;20199;-78
2022/05/12 00:52:11;;;;;;;4.63;3.08;;;;;;;13.28;57.23;94394.34;5063089;28;20214;-78
2022/05/12 00:54:44;;;;;;;7.97;3.28;;;;;;;13.23;57.54;94383.81;5062730;28;20071;-78
2022/05/12 00:57:14;;;;;;;9.65;3.47;;;;;;;13.22;57.95;94384.91;5062989;28;20081;-78
2022/05/12 00:59:41;;;;;;;5.90;3.17;;;;;;;13.20;57.99;94387.91;5062975;28;20197;-78
2022/05/12 01:02:11;;;;;;;9.68;3.42;;;;;;;13.16;58.01;94386.19;5062837;28;20096;-78
2022/05/12 01:04:39;;;;;;;13.52;3.25;;;;;;;13.17;58.35;94396.56;5062668;28;20025;-79
2022/05/12 01:07:05;;;;;;;8.75;3.55;;;;;;;13.07;58.72;94393.41;5062673;28;20037;-78
2022/05/12 01:09:31;;;;;;;5.28;3.42;;;;;;;13.09;58.86;94396.56;5062580;28;20143;-78
2022/05/12 01:11:56;;;;;;;7.93;3.47;;;;;;;13.03;59.07;94391.38;5062771;28;20037;-78
2022/05/12 01:14:23;;;;;;;9.70;3.60;;;;;;;12.98;59.36;94402.22;5063100;28;20032;-78
2022/05/12 01:16:53;;;;;;;7.35;4.07;;;;;;;12.93;59.36;94399.72;5062748;28;20021;-78
2022/05/12 01:19:24;;;;;;;5.72;3.38;;;;;;;12.92;59.40;94405.38;5062933;28;20062;-79
2022/05/12 01:21:51;;;;;;;7.40;3.53;;;;;;;12.86;59.52;94396.72;5062791;28;20029;-78
2022/05/12 01:24:19;;;;;;;7.63;3.65;;;;;;;12.81;59.73;94397.66;5062699;28;20029;-78
2022/05/12 01:26:46;;;;;;;5.72;2.90;;;;;;;12.80;59.90;94397.97;5062464;28;20051;-79
2022/05/12 01:29:11;;;;;;;9.20;3.50;;;;;;;12.76;59.91;94402.38;5062419;28;20070;-79
2022/05/12 01:31:37;;;;;;;4.85;3.15;;;;;;;12.73;59.90;94401.09;5062595;28;20025;-79
2022/05/12 01:34:06;;;;;;;5.13;3.15;;;;;;;12.73;60.14;94411.03;5062315;28;20032;-78
2022/05/12 01:36:32;;;;;;;7.72;4.05;;;;;;;12.68;60.19;94401.28;5062419;28;20088;-78
2022/05/12 01:38:58;;;;;;;7.15;3.42;;;;;;;12.64;60.34;94401.09;5062530;28;21139;-78
2022/05/12 01:41:23;;;;;;;4.78;3.05;;;;;;;12.59;60.50;94400.47;5062453;28;20021;-78
2022/05/12 01:43:49;;;;;;;7.32;3.75;;;;;;;12.56;60.49;94399.19;5062514;28;20021;-78
2022/05/12 01:46:15;;;;;;;5.97;3.28;;;;;;;12.56;60.54;94403.78;5062238;28;20040;-78
2022/05/12 01:48:41;;;;;;;9.73;3.63;;;;;;;12.55;60.64;94407.53;5062423;28;20079;-77
2022/05/12 01:51:08;;;;;;;7.80;3.28;;;;;;;12.52;60.78;94413.50;5062418;28;20369;-78
2022/05/12 01:53:34;;;;;;;9.32;3.95;;;;;;;12.47;61.07;94406.41;5063215;28;20067;-78
2022/05/12 01:56:00;;;;;;;6.68;3.50;;;;;;;12.45;61.17;94400.59;5066170;28;20099;-77
2022/05/12 01:58:26;;;;;;;5.93;3.30;;;;;;;12.43;61.26;94414.25;5066095;28;20246;-78
2022/05/12 02:00:52;;;;;;;5.13;3.13;;;;;;;12.43;61.20;94405.44;5066089;28;20032;-78
2022/05/12 02:03:17;;;;;;;8.23;3.58;;;;;;;12.39;61.23;94410.63;5066192;28;20112;-78
2022/05/12 02:05:44;;;;;;;5.45;3.08;;;;;;;12.37;61.53;94409.38;5065829;28;20025;-78
2022/05/12 02:08:11;;;;;;;4.55;3.30;;;;;;;12.33;61.43;94411.88;5065867;28;20048;-78
2022/05/12 02:10:39;;;;;;;7.28;3.63;;;;;;;12.29;61.65;94410.13;5066032;28;20025;-78
2022/05/12 02:13:07;;;;;;;7.13;3.90;;;;;;;12.28;61.55;94408.56;5065916;28;20024;-77
2022/05/12 02:15:33;;;;;;;7.55;3.45;;;;;;;12.24;61.79;94414.53;5065880;28;20013;-78
2022/05/12 02:17:58;;;;;;;8.45;3.63;;;;;;;12.22;61.71;94413.25;5065951;28;20096;-78
2022/05/12 02:20:24;;;;;;;9.43;3.90;;;;;;;12.18;61.91;94414.97;5065772;28;20311;-78
2022/05/12 02:22:50;;;;;;;9.27;3.50;;;;;;;12.15;62.19;94413.72;5065692;28;20017;-78
2022/05/12 02:25:17;;;;;;;6.00;3.80;;;;;;;12.10;62.43;94416.50;5065709;28;20025;-78
2022/05/12 02:27:45;;;;;;;10.40;3.67;;;;;;;12.08;62.53;94420.59;5065589;28;20033;-80
2022/05/12 02:30:13;;;;;;;7.53;4.03;;;;;;;12.07;62.69;94427.84;5065599;28;20204;-79
2022/05/12 02:32:39;;;;;;;5.30;3.83;;;;;;;12.02;62.76;94425.28;5065785;28;20250;-79
2022/05/12 02:35:05;;;;;;;8.30;4.35;;;;;;;12.02;62.20;94431.41;5065554;28;20012;-79
2022/05/12 02:37:30;;;;;;;7.35;4.13;;;;;;;12.01;62.35;94429.06;5065764;28;20088;-79
2022/05/12 02:39:56;;;;;;;7.70;4.53;;;;;;;12.00;62.59;94430.91;5065522;28;20027;-79
2022/05/12 02:42:22;;;;;;;10.80;4.88;;;;;;;12.01;62.53;94431.72;5065486;28;20044;-79
2022/05/12 02:44:47;;;;;;;8.43;4.30;;;;;;;12.02;62.63;94434.06;5065461;28;20327;-79
2022/05/12 02:47:13;;;;;;;6.25;4.18;;;;;;;11.98;62.73;94427.00;5065367;28;20374;-79
2022/05/12 02:49:38;;;;;;;7.43;3.95;;;;;;;11.97;62.88;94420.88;5065342;28;20308;-78
2022/05/12 02:52:06;;;;;;;5.80;3.75;;;;;;;11.97;62.84;94422.75;5065379;28;20024;-79
2022/05/12 02:54:33;;;;;;;7.00;4.57;;;;;;;11.93;63.02;94427.13;5065330;28;20021;-78
2022/05/12 02:56:58;;;;;;;6.85;4.63;;;;;;;11.91;62.92;94421.31;5065091;28;20243;-79
2022/05/12 02:59:24;;;;;;;8.38;4.47;;;;;;;11.90;63.15;94425.06;5064998;28;20036;-78
2022/05/12 03:01:49;;;;;;;10.32;4.22;;;;;;;11.85;63.21;94426.75;5047597;28;20335;-77
2022/05/12 03:04:15;;;;;;;9.70;4.43;;;;;;;11.84;63.24;94429.72;5064915;28;20021;-78
2022/05/12 03:06:42;;;;;;;8.52;4.50;;;;;;;11.79;63.55;94430.66;5064111;28;20425;-77
2022/05/12 03:09:09;;;;;;;7.20;3.85;;;;;;;11.75;63.69;94428.91;5064698;28;20101;-77
2022/05/12 03:11:34;;;;;;;8.38;4.88;;;;;;;11.71;63.85;94428.72;5064813;28;20020;-77
2022/05/12 03:13:59;;;;;;;7.57;4.38;;;;;;;11.71;63.84;94434.06;5064668;28;20028;-77
2022/05/12 03:16:25;;;;;;;10.50;5.75;;;;;;;11.69;64.13;94435.47;5064640;28;20327;-77
2022/05/12 03:18:53;;;;;;;12.40;5.65;;;;;;;11.65;64.45;94440.63;5047096;28;20017;-77
2022/05/12 03:21:20;;;;;;;10.38;5.47;;;;;;;11.65;64.42;94436.06;5064905;28;20021;-77
2022/05/12 03:23:46;;;;;;;10.93;5.70;;;;;;;11.58;64.80;94445.59;5064577;28;20032;-77
2022/05/12 03:26:12;;;;;;;9.07;4.78;;;;;;;11.59;64.94;94445.28;5064411;28;20103;-77
2022/05/12 03:28:39;;;;;;;11.70;5.25;;;;;;;11.61;65.05;94453.00;5064454;28;20037;-79
2022/05/12 03:31:05;;;;;;;10.85;6.10;;;;;;;11.63;65.24;94456.16;5064584;28;20067;-78
2022/05/12 03:33:31;;;;;;;10.02;6.03;;;;;;;11.64;65.47;94460.38;5064378;28;20024;-78
2022/05/12 03:35:58;;;;;;;17.20;6.03;;;;;;;11.65;65.62;94459.31;5064380;28;20413;-78
2022/05/12 03:38:24;;;;;;;12.60;6.68;;;;;;;11.65;65.54;94464.66;5064226;28;20028;-78
2022/05/12 03:40:50;;;;;;;13.05;7.05;;;;;;;11.69;65.91;94467.50;5064384;28;20021;-78
2022/05/12 03:44:46;;;;;;;10.23;6.22;;;;;;;11.69;65.71;94468.28;5064201;28;20384;-79
2022/05/12 03:46:03;;;;;;;14.35;5.35;;;;;;;11.70;66.03;94471.75;5063974;28;20047;-79
2022/05/12 03:48:29;;;;;;;12.30;6.32;;;;;;;11.75;66.03;94472.41;5064133;28;20025;-79
2022/05/12 03:50:54;;;;;;;11.38;6.30;;;;;;;11.79;66.02;94470.69;5064282;28;20025;-79
2022/05/12 03:53:20;;;;;;;14.98;6.10;;;;;;;11.82;65.60;94472.78;5063879;28;20319;-79
2022/05/12 03:55:46;;;;;;;14.35;6.75;;;;;;;11.88;65.28;94472.63;5063969;28;20053;-79
2022/05/12 03:58:11;;;;;;;14.65;5.78;;;;;;;11.79;65.15;94473.38;5064086;28;20032;-79
2022/05/12 04:00:38;;;;;;;13.20;6.25;;;;;;;11.86;64.88;94478.28;5063888;28;20047;-79
2022/05/12 04:03:04;;;;;;;14.05;5.88;;;;;;;11.78;65.12;94481.69;5063667;28;20025;-79
2022/05/12 04:05:31;;;;;;;12.13;6.20;;;;;;;11.84;64.84;94483.94;5063845;28;20100;-79
2022/05/12 04:07:57;;;;;;;9.32;6.00;;;;;;;11.91;65.24;94482.75;5063600;28;20041;-79
2022/05/12 04:10:24;;;;;;;14.32;8.00;;;;;;;11.95;65.09;94486.38;5063891;28;20043;-78
2022/05/12 04:12:50;;;;;;;12.20;5.97;;;;;;;12.01;65.12;94488.63;5063695;28;20052;-78
2022/05/12 04:15:16;;;;;;;17.25;6.03;;;;;;;12.06;64.96;94487.69;5063626;28;20276;-78
2022/05/12 04:17:43;;;;;;;19.38;6.93;;;;;;;12.04;65.07;94481.88;5062651;28;20040;-78
2022/05/12 04:20:13;;;;;;;11.20;6.57;;;;;;;12.05;65.08;94486.13;5063277;28;20319;-78
2022/05/12 04:22:40;;;;;;;16.20;6.75;;;;;;;12.08;65.13;94484.72;5063534;28;20217;-78
2022/05/12 04:25:06;;;;;;;19.73;7.95;;;;;;;12.15;64.74;94483.19;5063053;28;20040;-78
2022/05/12 04:27:39;;;;;;;15.85;7.43;;;;;;;12.20;64.47;94491.06;5045583;28;20425;-78
2022/05/12 04:30:06;;;;;;;14.70;7.18;;;;;;;12.26;64.50;94485.59;5062727;28;20032;-79
2022/05/12 04:32:32;;;;;;;16.55;7.25;;;;;;;12.37;64.75;94482.31;5062742;28;20032;-80
2022/05/12 04:35:14;;;;;;;14.18;7.30;;;;;;;12.41;63.72;94487.84;5045349;28;20029;-80
2022/05/12 04:37:51;;;;;;;13.33;7.90;;;;;;;12.28;64.46;94483.41;5063233;28;20021;-79
2022/05/12 04:40:27;;;;;;;16.67;8.95;;;;;;;12.37;64.19;94486.88;5063259;28;20255;-79
2022/05/12 04:42:55;;;;;;;16.27;8.32;;;;;;;12.35;63.98;94497.09;5063065;28;20214;-80
2022/05/12 04:45:22;;;;;;;18.58;8.13;;;;;;;12.42;63.80;94494.78;5063072;28;20031;-79
2022/05/12 04:47:48;;;;;;;20.08;8.05;;;;;;;12.47;63.43;94501.88;5062943;28;20198;-79
2022/05/12 04:50:22;;;;;;;18.30;8.18;;;;;;;12.56;63.28;94508.84;5062971;28;20028;-80
2022/05/12 04:52:48;;;;;;;20.85;7.90;;;;;;;12.65;63.09;94511.53;5063352;28;20310;-79
2022/05/12 04:55:15;;;;;;;13.30;7.65;;;;;;;12.76;63.10;94520.06;5063000;28;20215;-79
2022/05/12 04:57:43;;;;;;;19.90;8.18;;;;;;;12.67;63.68;94514.69;5062941;28;20044;-79
2022/05/12 05:00:13;;;;;;;17.10;7.20;;;;;;;12.67;63.46;94512.00;5044989;28;20027;-79
2022/05/12 05:02:40;;;;;;;18.23;8.20;;;;;;;12.72;63.66;94513.75;5062768;28;20021;-79
2022/05/12 05:05:06;;;;;;;16.92;8.98;;;;;;;12.77;63.69;94509.06;5062795;28;20025;-80
2022/05/12 05:07:31;;;;;;;18.23;8.32;;;;;;;12.82;63.21;94513.47;5062389;28;20037;-86
2022/05/12 05:09:57;;;;;;;23.80;8.50;;;;;;;12.87;62.83;94513.34;5062999;28;20023;-84
2022/05/12 05:12:22;;;;;;;13.68;7.35;;;;;;;12.92;63.12;94513.16;5062590;28;20025;-73
2022/05/12 05:14:47;;;;;;;14.77;8.07;;;;;;;13.00;62.65;94512.41;5062592;28;20031;-73
2022/05/12 05:17:13;;;;;;;19.73;8.15;;;;;;;13.09;63.04;94516.97;5062382;28;20080;-74
2022/05/12 05:19:40;;;;;;;14.23;8.63;;;;;;;13.21;62.63;94520.63;5062189;28;20029;-74
2022/05/12 05:22:05;;;;;;;18.15;7.88;;;;;;;13.37;62.84;94517.53;5062568;28;20028;-73
2022/05/12 05:24:31;;;;;;;19.83;8.40;;;;;;;13.52;62.04;94518.97;5062715;28;20088;-88
2022/05/12 05:26:56;;;;;;;23.85;8.73;;;;;;;13.59;60.84;94516.59;5062606;28;20036;-88
2022/05/12 05:29:22;;;;;;;14.30;7.38;;;;;;;13.68;60.98;94514.72;5065697;28;20040;-89
2022/05/12 05:31:47;;;;;;;14.93;7.30;;;;;;;13.75;60.64;94523.03;5068370;28;20087;-89
2022/05/12 05:34:13;;;;;;;18.00;7.95;;;;;;;13.79;59.58;94518.63;5070104;28;20063;-89
2022/05/12 05:36:42;;;;;;;14.40;8.25;;;;;;;13.76;59.72;94519.28;5067450;28;20308;-86
2022/05/12 05:39:08;;;;;;;16.92;8.88;;;;;;;13.85;59.87;94517.34;5067218;28;20183;-85
2022/05/12 05:41:36;;;;;;;22.77;8.25;;;;;;;13.92;59.33;94521.44;5066944;28;20024;-89
2022/05/12 05:44:02;;;;;;;15.43;7.20;;;;;;;14.04;59.28;94529.63;5066879;28;20033;-85
2022/05/12 05:46:28;;;;;;;17.60;7.32;;;;;;;14.17;58.43;94517.94;5067032;28;20021;-83
2022/05/12 05:48:55;;;;;;;22.73;8.77;;;;;;;14.24;58.18;94518.22;5071602;28;20021;-90
2022/05/12 05:54:05;;;;;;;15.05;8.00;;;;;;;14.48;58.13;94516.13;5070782;28;20263;-90
2022/05/12 05:56:31;;;;;;;22.50;7.38;;;;;;;14.57;57.58;94524.94;5068491;28;20095;-89
2022/05/12 05:58:56;;;;;;;16.13;7.38;;;;;;;14.65;56.78;94521.44;5068299;28;20031;-91
2022/05/12 06:01:22;;;;;;;14.90;7.40;;;;;;;14.72;56.63;94526.31;5067922;28;20124;-93
2022/05/12 06:03:47;;;;;;;20.40;7.25;;;;;;;14.69;56.34;94521.59;5050979;28;20104;-94
2022/05/12 06:06:13;;;;;;;23.25;7.45;;;;;;;14.75;56.50;94525.66;5067982;28;20029;-92
2022/05/12 06:08:38;;;;;;;22.90;8.02;;;;;;;14.77;57.00;94526.91;5067826;28;20270;-92
2022/05/12 06:11:04;;;;;;;13.88;6.40;;;;;;;14.92;55.50;94530.94;5050019;28;20334;-92
2022/05/12 06:13:34;;;;;;;20.02;7.10;;;;;;;15.01;55.08;94515.56;5067313;28;20194;-92
2022/05/12 06:16:00;;;;;;;9.35;5.57;;;;;;;15.11;54.07;94519.78;5065954;28;20311;-82
2022/05/12 06:18:25;;;;;;;15.57;5.97;;;;;;;15.13;54.59;94519.47;5065407;28;20029;-84
2022/05/12 06:20:51;;;;;;;10.85;6.07;;;;;;;15.18;54.55;94522.75;5064719;28;20063;-83
2022/05/12 06:23:17;;;;;;;15.80;6.95;;;;;;;15.22;54.96;94520.19;5062957;28;20196;-83
2022/05/12 06:25:44;;;;;;;13.63;7.32;;;;;;;15.28;54.50;94521.56;5063821;28;20031;-83
2022/05/12 06:28:09;;;;;;;14.75;6.28;;;;;;;15.33;54.64;94517.91;5064490;28;20319;-83
2022/05/12 06:30:35;;;;;;;17.60;6.70;;;;;;;15.37;54.95;94518.84;5065518;28;20023;-83
2022/05/12 06:33:01;;;;;;;18.77;6.45;;;;;;;15.42;54.51;94521.31;5064138;28;20021;-84
2022/05/12 06:35:27;;;;;;;21.02;7.30;;;;;;;15.50;54.60;94528.53;5064116;28;20234;-83
2022/05/12 06:37:53;;;;;;;15.02;7.40;;;;;;;15.65;54.58;94524.44;5063962;28;20028;-83
2022/05/12 06:40:20;;;;;;;18.73;7.57;;;;;;;15.78;54.03;94526.13;5062994;28;20032;-83
2022/05/12 06:42:46;;;;;;;14.45;7.15;;;;;;;15.88;53.89;94522.25;5064312;28;20021;-83
2022/05/12 06:45:15;;;;;;;20.92;8.07;;;;;;;15.94;54.12;94520.16;5064118;28;20021;-83
2022/05/12 06:47:50;;;;;;;18.38;7.88;;;;;;;16.02;53.97;94532.72;5047073;28;20021;-83
2022/05/12 06:50:21;;;;;;;18.48;9.10;;;;;;;16.06;54.04;94522.88;5065676;28;20066;-83
2022/05/12 06:52:48;;;;;;;19.70;8.45;;;;;;;16.19;54.02;94519.09;5065463;28;20031;-83
2022/05/12 06:55:14;;;;;;;35.95;7.50;;;;;;;16.27;53.44;94522.03;5065631;28;20450;-83
2022/05/12 06:57:39;;;;;;;32.90;8.18;;;;;;;16.30;53.58;94516.75;5065719;28;20088;-83
2022/05/12 07:00:08;;;;;;;20.00;7.75;;;;;;;16.34;53.57;94520.34;5065500;28;20048;-83
2022/05/12 07:02:35;;;;;;;13.52;7.28;;;;;;;16.41;52.93;94514.44;5065390;28;20025;-83
2022/05/12 07:05:01;;;;;;;18.98;7.25;;;;;;;16.51;52.46;94522.09;5065358;28;20222;-83
2022/05/12 07:07:27;;;;;;;12.85;6.07;;;;;;;16.61;51.75;94510.88;5065130;28;20065;-84
2022/05/12 07:09:54;;;;;;;17.63;6.82;;;;;;;16.70;51.46;94518.06;5065445;28;20029;-84
2022/05/12 07:12:20;;;;;;;17.08;6.57;;;;;;;16.87;50.68;94517.88;5065097;28;20039;-83
2022/05/12 07:14:46;;;;;;;19.85;7.65;;;;;;;16.96;50.46;94515.09;5065126;28;20028;-83
2022/05/12 07:17:11;;;;;;;9.60;5.63;;;;;;;16.99;50.90;94519.78;5064778;28;20097;-83
2022/05/12 07:19:37;;;;;;;17.13;5.78;;;;;;;17.16;51.50;94524.94;5064937;28;20028;-84
2022/05/12 07:27:31;;;;;;;13.25;6.05;;;;;;;17.69;49.70;94511.47;5064636;28;20100;-84
2022/05/12 07:29:56;;;;;;;21.15;6.85;;;;;;;17.83;48.84;94509.22;5064920;28;20215;-84
2022/05/12 07:32:22;;;;;;;16.50;6.80;;;;;;;18.00;48.09;94502.72;5064733;28;20021;-84
2022/05/12 07:34:48;;;;;;;13.07;6.53;;;;;;;18.13;47.69;94503.44;5064467;28;20087;-82
2022/05/12 07:37:14;;;;;;;13.38;5.45;;;;;;;18.30;47.29;94498.88;5064719;28;20039;-84
2022/05/12 07:39:40;;;;;;;17.20;6.20;;;;;;;18.40;46.44;94503.78;5064693;28;20017;-84
2022/05/12 07:42:05;;;;;;;14.15;6.10;;;;;;;18.52;46.39;94495.59;5064634;28;20019;-84
2022/05/12 07:44:34;;;;;;;13.73;6.45;;;;;;;18.70;46.18;94497.94;5064521;28;20020;-84
2022/05/12 07:47:10;;;;;;;20.02;6.40;;;;;;;18.83;45.66;94504.84;5064205;28;20097;-84
2022/05/12 07:49:37;;;;;;;16.27;5.70;;;;;;;18.96;45.40;94500.91;5064413;28;20044;-84
2022/05/12 07:52:08;;;;;;;17.08;6.55;;;;;;;19.07;44.21;94505.78;5064265;28;20088;-84
2022/05/12 07:54:34;;;;;;;12.65;6.40;;;;;;;19.13;43.38;94501.66;5064385;28;20017;-84
2022/05/12 07:57:00;;;;;;;11.02;5.40;;;;;;;19.13;43.55;94498.97;5064157;28;20012;-84
2022/05/12 07:59:29;;;;;;;21.88;5.97;;;;;;;19.19;43.48;94492.97;5064534;28;20090;-84
2022/05/12 08:01:58;;;;;;;13.48;6.03;;;;;;;19.23;43.33;94495.72;5064415;28;20035;-85
2022/05/12 08:04:24;;;;;;;10.43;5.15;;;;;;;19.26;43.31;94500.44;5046772;28;20036;-84
2022/05/12 08:06:49;;;;;;;18.15;5.97;;;;;;;19.27;43.27;94506.63;5046341;28;20307;-85
2022/05/12 08:09:15;;;;;;;12.85;6.18;;;;;;;19.31;43.62;94500.16;5063877;28;20044;-84
2022/05/12 08:11:40;;;;;;;21.98;6.82;;;;;;;19.30;43.17;94500.53;5063990;28;20021;-82
2022/05/12 08:14:06;;;;;;;11.88;5.15;;;;;;;19.26;42.75;94497.72;5063793;28;20049;-84
2022/05/12 08:16:32;;;;;;;13.77;6.22;;;;;;;19.22;42.71;94489.53;5063712;28;20067;-84
2022/05/12 08:18:57;;;;;;;15.57;6.65;;;;;;;19.29;43.11;94494.31;5063786;28;20032;-85
2022/05/12 08:21:26;;;;;;;16.80;6.45;;;;;;;19.39;43.32;94482.94;5064096;28;20052;-85
2022/05/12 08:23:52;;;;;;;13.65;6.35;;;;;;;19.45;43.56;94484.22;5064212;28;20021;-85
2022/05/12 08:26:18;;;;;;;14.20;6.45;;;;;;;19.53;43.24;94481.69;5063843;28;20028;-85
2022/05/12 08:28:44;;;;;;;15.60;6.70;;;;;;;19.62;43.76;94490.38;5045958;28;20025;-85
2022/05/12 08:31:10;;;;;;;14.60;6.95;;;;;;;19.69;42.97;94485.13;5063628;28;20044;-85
2022/05/12 08:33:36;;;;;;;13.88;7.65;;;;;;;19.72;43.13;94487.16;5063666;28;20021;-85
2022/05/12 08:36:03;;;;;;;16.05;7.80;;;;;;;19.84;42.38;94484.31;5063770;28;20027;-85
2022/05/12 08:38:28;;;;;;;14.43;6.97;;;;;;;19.98;42.53;94486.47;5063816;28;20987;-85
2022/05/12 08:41:01;;;;;;;18.17;5.25;;;;;;;20.13;40.31;94492.97;5063348;28;20033;-85
2022/05/12 08:43:36;;;;;;;8.57;4.70;;;;;;;20.16;39.99;94476.00;5063715;28;20056;-85
2022/05/12 08:46:06;;;;;;;9.30;5.30;;;;;;;20.26;39.65;94480.03;5063416;28;20021;-85
2022/05/12 08:48:32;;;;;;;13.23;4.35;;;;;;;20.33;38.28;94479.38;5063508;28;20081;-85
2022/05/12 08:50:57;;;;;;;9.32;3.55;;;;;;;20.39;35.80;94489.56;5063612;28;20020;-85
2022/05/12 08:53:29;;;;;;;13.20;4.25;;;;;;;20.45;36.48;94481.91;5063401;28;20024;-85
2022/05/12 08:55:57;;;;;;;8.35;3.67;;;;;;;20.51;36.58;94485.88;5063480;28;20017;-86
2022/05/12 08:58:33;;;;;;;8.20;3.83;;;;;;;20.58;35.99;94475.22;5063617;28;20021;-85
2022/05/12 09:01:17;;;;;;;10.68;4.38;;;;;;;20.74;36.24;94477.00;5063011;28;20032;-83
2022/05/12 09:03:59;;;;;;;7.35;4.18;;;;;;;20.83;37.07;94483.75;5062658;28;20084;-84
2022/05/12 09:06:31;;;;;;;14.77;4.50;;;;;;;20.90;36.68;94474.16;5063110;28;20323;-84
2022/05/12 09:09:02;;;;;;;10.40;4.10;;;;;;;21.01;37.02;94470.47;5063134;28;20067;-84
2022/05/12 09:11:39;;;;;;;10.95;4.25;;;;;;;21.07;36.17;94472.88;5063340;28;20029;-84
2022/05/12 09:14:12;;;;;;;12.13;3.97;;;;;;;21.17;36.82;94466.84;5063133;28;20025;-85
2022/05/12 09:16:38;;;;;;;10.55;4.63;;;;;;;21.28;35.73;94470.47;5062773;28;20025;-84
2022/05/12 09:19:03;;;;;;;10.25;3.83;;;;;;;21.37;35.44;94470.19;5062934;28;20075;-85
2022/05/12 09:21:35;;;;;;;7.88;3.78;;;;;;;21.41;35.24;94471.81;5063516;28;20031;-85
2022/05/12 09:24:03;;;;;;;8.80;3.50;;;;;;;21.55;35.15;94467.75;5063858;28;20020;-85
2022/05/12 09:26:53;;;;;;;14.32;3.70;;;;;;;21.64;35.20;94484.53;5063545;28;20127;-84
2022/05/12 09:29:26;;;;;;;7.80;3.60;;;;;;;21.59;34.39;94476.72;5045371;28;20029;-85
2022/05/12 09:32:03;;;;;;;17.90;3.63;;;;;;;21.53;35.66;94470.03;5063213;28;20272;-84
2022/05/12 09:34:43;;;;;;;11.82;3.60;;;;;;;21.60;34.39;94470.16;5063320;28;20048;-84
2022/05/12 09:37:24;;;;;;;11.23;3.10;;;;;;;21.64;34.28;94471.75;5063051;28;20088;-84
2022/05/12 09:39:57;;;;;;;10.52;3.40;;;;;;;21.72;34.07;94467.19;5045295;28;20043;-84
2022/05/12 09:42:27;;;;;;;7.47;3.00;;;;;;;21.79;33.28;94459.13;5061653;28;20036;-84
2022/05/12 09:45:15;;;;;;;6.95;3.38;;;;;;;21.90;32.25;94463.91;5062996;28;20029;-85
2022/05/12 09:47:41;;;;;;;8.50;2.72;;;;;;;21.99;33.50;94465.19;5061881;28;20049;-85
2022/05/12 09:50:23;;;;;;;7.30;3.78;;;;;;;22.08;33.78;94464.09;5062861;28;20025;-85
2022/05/12 09:53:00;;;;;;;10.82;3.10;;;;;;;22.12;32.76;94465.69;5062879;28;20200;-85
2022/05/12 09:55:33;;;;;;;6.18;2.85;;;;;;;22.12;32.94;94459.50;5062791;28;20051;-85
2022/05/12 09:58:05;;;;;;;8.45;3.45;;;;;;;22.17;32.46;94457.22;5062545;28;20021;-85
2022/05/12 10:00:40;;;;;;;7.57;2.90;;;;;;;22.26;32.85;94456.16;5045312;28;20056;-85
2022/05/12 10:09:07;;;;;;;9.07;3.50;;;;;;;22.14;33.10;94443.59;5062368;28;20270;-85
2022/05/12 10:11:47;;;;;;;6.32;3.25;;;;;;;22.21;32.72;94449.91;5044796;28;20090;-85
2022/05/12 10:14:27;;;;;;;10.75;3.17;;;;;;;22.33;32.41;94434.53;5062881;28;20035;-86
2022/05/12 10:16:56;;;;;;;9.63;3.55;;;;;;;22.51;32.26;94435.47;5066138;28;20025;-86
2022/05/12 10:19:22;;;;;;;15.77;5.95;;;;;;;22.65;31.89;94432.06;5066182;28;20319;-85
2022/05/12 10:21:59;;;;;;;6.45;3.30;;;;;;;22.73;32.88;94424.75;5066192;28;20063;-86
2022/05/12 10:24:40;;;;;;;6.95;3.08;;;;;;;22.91;31.40;94425.66;5066249;28;20052;-84
2022/05/12 10:27:12;;;;;;;5.78;3.35;;;;;;;22.91;30.98;94416.75;5066045;28;20035;-86
2022/05/12 10:29:55;;;;;;;;;;;;;;;22.89;30.59;94425.25;5066308;28;20028;-84
2022/05/12 10:32:40;;;;;;;7.97;3.15;;;;;;;22.87;32.18;94416.72;5065849;28;19911;-84
2022/05/12 10:35:29;;;;;;;5.82;3.10;;;;;;;23.02;31.54;94412.97;5065861;28;20031;-84
2022/05/12 10:38:08;;;;;;;8.52;3.20;;;;;;;23.16;31.15;94412.28;5065663;28;20055;-86
2022/05/12 10:40:48;;;;;;;7.45;2.90;;;;;;;23.28;30.27;94405.72;5066290;28;20040;-84
2022/05/12 10:43:39;;;;;;;7.13;2.70;;;;;;;23.42;29.10;94403.06;5065722;28;20032;-85
2022/05/12 10:46:23;;;;;;;6.90;3.10;;;;;;;23.32;27.07;94398.34;5065617;28;20052;-85
2022/05/12 10:49:04;;;;;;;9.85;2.70;;;;;;;23.44;25.77;94398.00;5065514;28;20037;-83
2022/05/12 10:52:07;;;;;;;5.85;2.40;;;;;;;23.53;26.15;94384.09;5065654;28;20070;-85
2022/05/12 10:54:35;;;;;;;8.73;3.67;;;;;;;23.62;26.20;94389.94;5065428;28;20052;-85
2022/05/12 10:57:19;;;;;;;9.15;4.03;;;;;;;23.67;24.50;94405.13;5065560;28;20021;-86
2022/05/12 11:00:12;;;;;;;8.43;2.42;;;;;;;23.60;23.30;94392.25;5065714;28;20043;-85
2022/05/12 11:02:52;;;;;;;4.63;2.30;;;;;;;23.49;24.75;94385.22;5065283;28;20323;-86
2022/05/12 11:05:21;;;;;;;5.50;2.63;;;;;;;23.59;25.23;94400.78;5065200;28;20327;-86
2022/05/12 11:07:52;;;;;;;5.57;2.45;;;;;;;23.56;26.54;94391.47;5049995;28;20111;-85
2022/05/12 11:10:31;;;;;;;7.18;2.30;;;;;;;23.46;26.64;94375.88;5065449;28;20040;-85
2022/05/12 11:13:11;;;;;;;7.47;2.40;;;;;;;23.53;28.20;94386.00;5065352;28;20036;-85
2022/05/12 11:15:51;;;;;;;7.32;2.53;;;;;;;23.67;28.15;94372.47;5065123;28;20021;-85
2022/05/12 11:18:26;;;;;;;6.13;2.72;;;;;;;23.82;28.15;94370.59;5065305;28;20040;-86
2022/05/12 11:21:01;;;;;;;10.68;3.35;;;;;;;23.91;28.13;94379.16;5064975;28;20046;-86
2022/05/12 11:23:48;;;;;;;6.38;3.92;;;;;;;24.12;28.30;94370.25;5065149;28;20040;-86
2022/05/12 11:26:13;;;;;;;5.40;2.65;;;;;;;24.37;27.52;94364.81;5064215;28;20036;-86
2022/05/12 11:31:59;;;;;;;3.65;2.55;;;;;;;24.88;26.42;94364.81;5065398;28;20056;-86
2022/05/12 11:34:27;;;;;;;3.95;2.13;;;;;;;24.98;26.25;94356.63;5065008;28;20035;-86
2022/05/12 11:36:55;;;;;;;7.28;2.85;;;;;;;25.12;26.20;94353.06;5064996;28;20066;-86
2022/05/12 11:39:26;;;;;;;3.90;2.25;;;;;;;25.34;26.15;94344.84;5065143;28;20138;-86
2022/05/12 11:42:09;;;;;;;4.83;2.47;;;;;;;25.49;24.85;94340.13;5065078;28;20064;-86
2022/05/12 11:44:55;;;;;;;12.43;2.70;;;;;;;25.61;25.80;94337.72;5063486;28;20028;-85
2022/05/12 11:47:32;;;;;;;4.75;2.40;;;;;;;25.66;26.44;94339.22;5064451;28;20021;-86
2022/05/12 11:50:08;;;;;;;5.18;2.90;;;;;;;25.63;26.44;94329.13;5064723;28;20029;-86
2022/05/12 11:53:19;;;;;;;30.83;3.53;;;;;;;25.70;25.05;94333.75;5064909;28;20311;-86
2022/05/12 11:56:01;;;;;;;5.97;2.55;;;;;;;25.59;25.29;94329.13;5049730;28;20056;-85